Terminal Aerodrome Forecast
Issued by NWS Greer, SC

Home | Current Version | Previous Version | Text Only | Print | Product List | Glossary On
Versions: 1 2 3 4 5 6 7 8 9 10 11 12 13 14 15 16 17 18 19 20 21 22 23 24 25 26 27 28
000
FTUS42 KGSP 240202 AAB
TAFGSP
TAF AMD
KGSP 240202Z 2402/2424 21007KT P6SM BKN090
     FM240500 22004KT P6SM VCSH SCT008 BKN015
      TEMPO 2405/2409 4SM -TSRA BR SCT015CB OVC028
     FM240900 23003KT 2SM BR OVC005
     FM241400 15005KT 5SM BR VCSH OVC008
     FM241800 20012G18KT P6SM OVC035 PROB30 2418/2424 3SM TSRA
      OVC020CB=

USA.gov is the U.S. government's official web portal to all federal, state and local government web resources and services.